createdAt,value
2022-12-29T00:02:27.578Z,11.29
2022-12-29T00:04:55.499Z,11.21
2022-12-29T00:07:23.356Z,11.39
2022-12-29T00:09:51.264Z,11.42
2022-12-29T00:12:19.097Z,11.29
2022-12-29T00:15:04.489Z,11.31
2022-12-29T00:17:33.744Z,11.36
2022-12-29T00:20:18.796Z,11.51
2022-12-29T00:23:03.976Z,11.46
2022-12-29T00:25:49.162Z,11.35
2022-12-29T00:28:34.603Z,11.02
2022-12-29T00:31:20.759Z,11.34
2022-12-29T00:34:07.301Z,11.08
2022-12-29T00:36:40.692Z,11.36
2022-12-29T00:39:26.075Z,11.50
2022-12-29T00:42:08.146Z,11.50
2022-12-29T00:44:36.177Z,10.93
2022-12-29T00:47:05.390Z,11.39
2022-12-29T00:49:34.356Z,11.33
2022-12-29T00:52:05.402Z,11.16
2022-12-29T00:54:35.343Z,11.35
2022-12-29T00:57:04.029Z,11.54
2022-12-29T00:59:32.803Z,11.39
2022-12-29T01:02:00.718Z,11.11
2022-12-29T01:04:29.952Z,11.52
2022-12-29T01:06:59.199Z,11.45
2022-12-29T01:09:44.514Z,11.53
2022-12-29T01:12:13.521Z,11.37
2022-12-29T01:14:42.801Z,11.39
2022-12-29T01:17:10.923Z,11.59
2022-12-29T01:19:40.120Z,11.26
2022-12-29T01:22:09.396Z,11.36
2022-12-29T01:24:37.548Z,11.14
2022-12-29T01:27:05.521Z,11.44
2022-12-29T01:29:33.513Z,11.32
2022-12-29T01:32:01.483Z,11.16
2022-12-29T01:34:29.788Z,11.52
2022-12-29T01:36:57.801Z,11.37
2022-12-29T01:39:27.439Z,11.25
2022-12-29T01:41:55.319Z,11.67
2022-12-29T01:44:57.350Z,11.32
2022-12-29T01:47:31.029Z,11.46
2022-12-29T01:50:02.811Z,11.47
2022-12-29T01:52:34.129Z,11.19
2022-12-29T01:55:06.979Z,11.42
2022-12-29T01:57:38.895Z,11.13
2022-12-29T02:00:10.294Z,11.33
2022-12-29T02:02:42.494Z,11.49
2022-12-29T02:05:16.161Z,11.44
2022-12-29T02:07:48.749Z,11.72
2022-12-29T02:10:18.153Z,11.42
2022-12-29T02:12:48.707Z,11.33
2022-12-29T02:15:17.679Z,11.19
2022-12-29T02:18:03.974Z,11.51
2022-12-29T02:21:00.193Z,11.26
2022-12-29T02:23:57.374Z,11.28
2022-12-29T02:26:45.808Z,11.45
2022-12-29T02:29:38.702Z,11.42
2022-12-29T02:32:15.566Z,11.46
2022-12-29T02:34:54.567Z,11.50
2022-12-29T02:37:28.184Z,11.32
2022-12-29T02:40:01.166Z,11.40
2022-12-29T02:42:37.701Z,11.35
2022-12-29T02:45:10.831Z,11.46
2022-12-29T02:47:44.392Z,11.20
2022-12-29T02:50:18.841Z,11.61
2022-12-29T02:52:51.217Z,11.55
2022-12-29T02:55:18.285Z,11.73
2022-12-29T02:57:46.347Z,11.73
2022-12-29T03:00:18.077Z,11.64
2022-12-29T03:03:07.622Z,11.54
2022-12-29T03:06:01.489Z,11.90
2022-12-29T03:08:33.776Z,11.96
2022-12-29T03:11:05.394Z,11.77
2022-12-29T03:13:59.088Z,11.89
2022-12-29T03:16:37.324Z,11.82
2022-12-29T03:19:12.820Z,12.00
2022-12-29T03:22:03.595Z,12.07
2022-12-29T03:24:41.785Z,12.04
2022-12-29T03:27:12.818Z,12.16
2022-12-29T03:29:53.285Z,11.82
2022-12-29T03:32:24.780Z,12.10
2022-12-29T03:34:57.441Z,12.11
2022-12-29T03:37:30.989Z,12.26
2022-12-29T03:40:00.364Z,12.27
2022-12-29T03:42:32.565Z,12.24
2022-12-29T03:45:00.546Z,12.41
2022-12-29T03:47:29.840Z,11.86
2022-12-29T03:49:59.241Z,11.91
2022-12-29T03:52:27.235Z,12.17
2022-12-29T03:54:56.150Z,12.11
2022-12-29T03:57:24.040Z,12.22
2022-12-29T03:59:59.139Z,12.05
2022-12-29T04:02:27.227Z,12.25
2022-12-29T04:04:58.950Z,12.35
2022-12-29T04:07:26.836Z,12.28
2022-12-29T04:09:56.626Z,12.39
2022-12-29T04:12:27.582Z,12.17
2022-12-29T04:14:55.493Z,12.16
2022-12-29T04:17:24.039Z,12.33
2022-12-29T04:20:14.417Z,12.37
2022-12-29T04:22:43.686Z,12.42
2022-12-29T04:25:12.325Z,12.42
2022-12-29T04:27:40.441Z,12.41
2022-12-29T04:30:26.576Z,12.34
2022-12-29T04:33:05.345Z,12.34
2022-12-29T04:35:33.292Z,12.38
2022-12-29T04:38:04.243Z,12.48
2022-12-29T04:40:32.405Z,12.44
2022-12-29T04:43:00.324Z,12.20
2022-12-29T04:45:28.745Z,12.10
2022-12-29T04:48:02.184Z,12.34
2022-12-29T04:51:05.860Z,12.42
2022-12-29T04:53:40.644Z,12.51
2022-12-29T04:56:10.149Z,12.48
2022-12-29T04:58:38.621Z,12.22
2022-12-29T05:01:07.069Z,12.69
2022-12-29T05:03:35.940Z,12.56
2022-12-29T05:06:03.948Z,12.63
2022-12-29T05:08:31.895Z,12.27
2022-12-29T05:11:04.913Z,12.50
2022-12-29T05:13:32.803Z,12.30
2022-12-29T05:16:04.152Z,12.18
2022-12-29T05:18:32.206Z,12.51
2022-12-29T05:21:00.836Z,12.56
2022-12-29T05:23:29.658Z,12.71
2022-12-29T05:26:05.441Z,12.55
2022-12-29T05:28:58.148Z,12.46
2022-12-29T05:31:26.094Z,12.69
2022-12-29T05:33:54.404Z,12.58
2022-12-29T05:36:22.943Z,12.69
2022-12-29T05:38:55.087Z,12.71
2022-12-29T05:41:24.520Z,12.63
2022-12-29T05:44:08.743Z,12.60
2022-12-29T05:47:05.274Z,12.96
2022-12-29T05:49:47.806Z,12.74
2022-12-29T05:52:30.628Z,12.96
2022-12-29T05:54:58.845Z,12.90
2022-12-29T05:57:29.791Z,12.69
2022-12-29T06:00:09.726Z,12.93
2022-12-29T06:02:42.821Z,12.81
2022-12-29T06:05:11.565Z,13.03
2022-12-29T06:07:40.900Z,13.08
2022-12-29T06:10:10.052Z,13.00
2022-12-29T06:12:47.142Z,13.27
2022-12-29T06:15:16.710Z,13.02
2022-12-29T06:17:45.838Z,12.67
2022-12-29T06:20:13.813Z,13.11
2022-12-29T06:22:42.514Z,13.10
2022-12-29T06:25:11.067Z,13.27
2022-12-29T06:27:40.378Z,13.14
2022-12-29T06:30:11.355Z,13.29
2022-12-29T06:32:40.944Z,13.18
2022-12-29T06:35:11.848Z,13.30
2022-12-29T06:37:44.493Z,13.25
2022-12-29T06:40:13.764Z,13.41
2022-12-29T06:43:01.253Z,13.62
2022-12-29T06:45:50.529Z,13.46
2022-12-29T06:48:18.565Z,13.44
2022-12-29T06:50:46.392Z,13.41
2022-12-29T06:53:14.275Z,13.29
2022-12-29T06:55:43.612Z,13.40
2022-12-29T06:58:11.523Z,13.49
2022-12-29T07:00:39.437Z,13.56
2022-12-29T07:03:08.677Z,13.53
2022-12-29T07:05:36.586Z,13.26
2022-12-29T07:08:04.480Z,13.22
2022-12-29T07:10:32.344Z,13.05
2022-12-29T07:13:00.379Z,13.21
2022-12-29T07:15:28.297Z,13.15
2022-12-29T07:17:56.226Z,13.10
2022-12-29T07:20:27.212Z,13.10
2022-12-29T07:22:55.622Z,12.90
2022-12-29T07:25:23.542Z,13.01
2022-12-29T07:27:51.561Z,13.28
2022-12-29T07:30:19.582Z,13.17
2022-12-29T07:32:47.545Z,12.89
2022-12-29T07:35:15.606Z,13.10
2022-12-29T07:37:44.884Z,13.30
2022-12-29T07:40:13.778Z,13.26
2022-12-29T07:42:42.073Z,13.06
2022-12-29T07:45:11.625Z,12.99
2022-12-29T07:48:09.427Z,13.16
2022-12-29T07:50:37.611Z,13.09
2022-12-29T07:53:06.905Z,13.15
2022-12-29T07:55:34.856Z,13.14
2022-12-29T07:58:02.775Z,13.06
2022-12-29T08:00:30.711Z,13.31
2022-12-29T08:03:00.014Z,13.01
2022-12-29T08:05:27.909Z,13.20
2022-12-29T08:07:55.831Z,13.32
2022-12-29T08:10:25.099Z,13.44
2022-12-29T08:12:53.746Z,13.33
2022-12-29T08:15:24.416Z,13.49
2022-12-29T08:17:55.253Z,13.48
2022-12-29T08:20:23.153Z,13.48
2022-12-29T08:22:52.803Z,13.36
2022-12-29T08:25:21.551Z,13.32
2022-12-29T08:27:50.861Z,13.38
2022-12-29T08:30:19.031Z,13.30
2022-12-29T08:32:47.122Z,13.07
2022-12-29T08:35:15.108Z,12.97
2022-12-29T08:37:43.085Z,13.15
2022-12-29T08:40:11.865Z,13.04
2022-12-29T08:42:39.804Z,13.09
2022-12-29T08:45:10.732Z,13.22
2022-12-29T08:47:38.913Z,13.55
2022-12-29T08:50:07.869Z,13.40
2022-12-29T08:52:35.775Z,13.48
2022-12-29T08:55:03.699Z,13.23
2022-12-29T08:57:31.916Z,13.25
2022-12-29T09:00:18.876Z,13.47
2022-12-29T09:02:47.520Z,13.47
2022-12-29T09:05:15.702Z,13.75
2022-12-29T09:07:43.926Z,13.92
2022-12-29T09:10:11.875Z,13.87
2022-12-29T09:12:39.750Z,13.76
2022-12-29T09:15:09.269Z,13.79
2022-12-29T09:17:45.556Z,13.55
2022-12-29T09:20:14.630Z,13.61
2022-12-29T09:22:43.142Z,13.58
2022-12-29T09:25:11.762Z,13.58
2022-12-29T09:27:39.681Z,13.58
2022-12-29T09:30:11.585Z,13.60
2022-12-29T09:32:45.124Z,13.67
2022-12-29T09:35:13.935Z,13.79
2022-12-29T09:37:41.855Z,13.88
2022-12-29T09:40:23.459Z,13.92
2022-12-29T09:43:12.721Z,13.86
2022-12-29T09:45:45.746Z,13.91
2022-12-29T09:48:20.096Z,14.09
2022-12-29T09:50:52.644Z,14.62
2022-12-29T09:53:24.672Z,15.01
2022-12-29T09:55:55.579Z,15.05
2022-12-29T09:58:27.321Z,14.92
2022-12-29T10:01:00.508Z,14.64
2022-12-29T10:03:41.374Z,14.71
2022-12-29T10:06:14.118Z,14.75
2022-12-29T10:08:46.784Z,14.68
2022-12-29T10:11:26.114Z,14.76
2022-12-29T10:14:15.806Z,14.31
2022-12-29T10:16:55.099Z,14.63
2022-12-29T10:19:46.109Z,14.71
2022-12-29T10:22:23.755Z,14.56
2022-12-29T10:24:57.099Z,14.93
2022-12-29T10:27:26.297Z,14.94
2022-12-29T10:29:58.020Z,14.97
2022-12-29T10:32:35.206Z,15.28
2022-12-29T10:35:13.961Z,15.35
2022-12-29T10:37:48.260Z,15.43
2022-12-29T10:40:23.982Z,15.88
2022-12-29T10:42:55.410Z,15.81
2022-12-29T10:45:26.368Z,15.27
2022-12-29T10:47:59.606Z,15.45
2022-12-29T10:50:30.451Z,15.44
2022-12-29T10:53:02.240Z,15.36
2022-12-29T10:55:34.379Z,15.33
2022-12-29T10:58:05.970Z,15.37
2022-12-29T11:00:34.842Z,15.31
2022-12-29T11:03:36.088Z,14.99
2022-12-29T11:06:11.128Z,15.07
2022-12-29T11:08:42.037Z,15.36
2022-12-29T11:11:11.704Z,15.06
2022-12-29T11:13:50.095Z,15.34
2022-12-29T11:16:29.720Z,15.44
2022-12-29T11:18:57.693Z,15.11
2022-12-29T11:21:34.753Z,14.96
2022-12-29T11:24:04.744Z,15.02
2022-12-29T11:26:35.004Z,15.22
2022-12-29T11:29:25.819Z,15.38
2022-12-29T11:31:56.192Z,15.36
2022-12-29T11:34:26.529Z,15.13
2022-12-29T11:37:03.199Z,14.76
2022-12-29T11:39:42.016Z,14.79
2022-12-29T11:42:17.323Z,14.62
2022-12-29T11:44:47.893Z,14.90
2022-12-29T11:47:27.573Z,14.70
2022-12-29T11:49:59.294Z,14.91
2022-12-29T11:52:34.105Z,14.77
2022-12-29T11:55:03.656Z,14.74
2022-12-29T11:57:35.384Z,14.70
2022-12-29T12:00:04.879Z,14.46
2022-12-29T12:02:44.621Z,14.32
2022-12-29T12:05:28.025Z,14.44
2022-12-29T12:08:04.404Z,14.06
2022-12-29T12:10:39.569Z,13.93
2022-12-29T12:13:16.588Z,14.05
2022-12-29T12:15:52.851Z,13.79
2022-12-29T12:18:34.561Z,14.06
2022-12-29T12:21:10.791Z,13.71
2022-12-29T12:23:48.102Z,13.81
2022-12-29T12:26:19.818Z,13.87
2022-12-29T12:28:56.246Z,13.79
2022-12-29T12:31:43.494Z,14.01
2022-12-29T12:34:17.987Z,13.90
2022-12-29T12:37:12.416Z,13.95
2022-12-29T12:39:58.284Z,14.12
2022-12-29T12:42:45.012Z,13.63
2022-12-29T12:45:40.998Z,13.88
2022-12-29T12:48:26.050Z,13.83
2022-12-29T12:51:00.575Z,13.73
2022-12-29T12:53:41.933Z,13.81
2022-12-29T12:56:34.910Z,13.98
2022-12-29T12:59:11.546Z,13.92
2022-12-29T13:01:49.006Z,13.96
2022-12-29T13:05:05.557Z,14.03
2022-12-29T13:07:46.826Z,13.85
2022-12-29T13:10:24.411Z,13.52
2022-12-29T13:13:03.226Z,13.52
2022-12-29T13:15:44.826Z,13.78
2022-12-29T13:18:26.343Z,14.01
2022-12-29T13:21:01.523Z,13.86
2022-12-29T13:23:36.857Z,13.63
2022-12-29T13:26:14.025Z,13.82
2022-12-29T13:28:51.941Z,13.99
2022-12-29T13:31:28.712Z,13.60
2022-12-29T13:34:03.187Z,13.72
2022-12-29T13:36:36.991Z,13.58
2022-12-29T13:39:16.209Z,13.48
2022-12-29T13:41:50.958Z,13.87
2022-12-29T13:44:24.578Z,13.77
2022-12-29T13:46:53.898Z,13.64
2022-12-29T13:49:25.426Z,13.64
2022-12-29T13:51:56.172Z,13.78
2022-12-29T13:54:33.470Z,13.80
2022-12-29T13:57:11.547Z,13.71
2022-12-29T13:59:51.041Z,13.81
2022-12-29T14:02:33.055Z,13.72
2022-12-29T14:05:03.672Z,13.58
2022-12-29T14:07:37.731Z,13.92
2022-12-29T14:10:06.669Z,13.77
2022-12-29T14:12:40.080Z,13.67
2022-12-29T14:15:17.479Z,13.74
2022-12-29T14:17:45.965Z,13.86
2022-12-29T14:20:21.977Z,13.81
2022-12-29T14:23:02.264Z,13.99
2022-12-29T14:25:59.227Z,13.70
2022-12-29T14:28:28.694Z,13.74
2022-12-29T14:30:59.331Z,13.66
2022-12-29T14:33:29.970Z,13.80
2022-12-29T14:35:57.983Z,13.83
2022-12-29T14:38:29.312Z,13.73
2022-12-29T14:41:21.094Z,13.70
2022-12-29T14:44:03.179Z,13.65
2022-12-29T14:46:49.034Z,13.66
2022-12-29T14:49:21.374Z,13.88
2022-12-29T14:51:50.554Z,13.62
2022-12-29T14:54:46.058Z,13.87
2022-12-29T14:57:24.265Z,13.73
2022-12-29T14:59:57.949Z,13.80
2022-12-29T15:02:34.528Z,13.96
2022-12-29T15:05:04.492Z,13.73
2022-12-29T15:07:33.603Z,13.73
2022-12-29T15:10:08.380Z,13.63
2022-12-29T15:12:41.106Z,13.82
2022-12-29T15:15:21.328Z,13.88
2022-12-29T15:17:50.622Z,13.58
2022-12-29T15:20:28.315Z,13.59
2022-12-29T15:22:59.611Z,13.47
2022-12-29T15:25:28.250Z,13.60
2022-12-29T15:27:59.547Z,13.44
2022-12-29T15:30:27.490Z,13.12
2022-12-29T15:32:56.875Z,13.41
2022-12-29T15:35:29.345Z,13.33
2022-12-29T15:37:58.153Z,13.43
2022-12-29T15:40:27.995Z,13.29
2022-12-29T15:43:09.878Z,13.36
2022-12-29T15:45:38.160Z,13.34
2022-12-29T15:48:16.645Z,13.15
2022-12-29T15:50:45.154Z,13.03
2022-12-29T15:53:14.998Z,13.16
2022-12-29T15:55:45.168Z,13.09
2022-12-29T15:58:22.164Z,13.11
2022-12-29T16:00:53.992Z,13.31
2022-12-29T16:03:25.340Z,13.16
2022-12-29T16:05:56.441Z,13.14
2022-12-29T16:08:33.473Z,13.14
2022-12-29T16:11:03.680Z,13.19
2022-12-29T16:13:39.855Z,13.22
2022-12-29T16:16:15.692Z,13.10
2022-12-29T16:18:50.466Z,13.21
2022-12-29T16:21:25.360Z,13.14
2022-12-29T16:23:56.725Z,13.13
2022-12-29T16:26:26.154Z,13.08
2022-12-29T16:28:58.168Z,12.94
2022-12-29T16:31:30.611Z,13.03
2022-12-29T16:34:00.172Z,12.87
2022-12-29T16:36:31.389Z,13.11
2022-12-29T16:39:34.061Z,13.22
2022-12-29T16:42:02.546Z,13.15
2022-12-29T16:44:32.280Z,13.17
2022-12-29T16:47:22.431Z,12.96
2022-12-29T16:49:55.923Z,13.15
2022-12-29T16:52:29.426Z,13.24
2022-12-29T16:55:01.163Z,12.97
2022-12-29T16:57:32.410Z,13.27
2022-12-29T17:00:03.518Z,13.13
2022-12-29T17:02:34.522Z,12.99
2022-12-29T17:05:03.942Z,12.95
2022-12-29T17:07:32.396Z,13.05
2022-12-29T17:10:00.419Z,13.13
2022-12-29T17:12:31.296Z,12.90
2022-12-29T17:15:01.591Z,13.24
2022-12-29T17:17:34.650Z,13.22
2022-12-29T17:20:07.284Z,13.10
2022-12-29T17:22:35.296Z,13.20
2022-12-29T17:25:04.043Z,13.33
2022-12-29T17:27:35.737Z,13.26
2022-12-29T17:30:07.007Z,13.23
2022-12-29T17:32:35.255Z,13.30
2022-12-29T17:35:05.015Z,13.35
2022-12-29T17:37:38.524Z,13.24
2022-12-29T17:40:09.596Z,13.46
2022-12-29T17:42:43.054Z,13.61
2022-12-29T17:45:14.329Z,13.56
2022-12-29T17:47:42.165Z,13.47
2022-12-29T17:50:14.266Z,13.59
2022-12-29T17:52:42.873Z,13.21
2022-12-29T17:55:17.521Z,13.47
2022-12-29T17:57:45.604Z,13.46
2022-12-29T18:00:17.981Z,13.49
2022-12-29T18:02:47.268Z,13.34
2022-12-29T18:05:21.360Z,13.47
2022-12-29T18:07:50.150Z,13.50
2022-12-29T18:10:18.183Z,13.14
2022-12-29T18:12:48.042Z,13.17
2022-12-29T18:15:21.828Z,13.28
2022-12-29T18:17:49.922Z,13.28
2022-12-29T18:20:19.139Z,13.21
2022-12-29T18:22:46.983Z,13.18
2022-12-29T18:25:23.504Z,13.12
2022-12-29T18:27:51.435Z,13.04
2022-12-29T18:30:19.607Z,13.36
2022-12-29T18:32:47.512Z,13.17
2022-12-29T18:35:24.402Z,13.23
2022-12-29T18:37:52.421Z,13.13
2022-12-29T18:40:20.657Z,13.27
2022-12-29T18:42:48.519Z,13.29
2022-12-29T18:45:21.897Z,13.35
2022-12-29T18:47:49.648Z,13.35
2022-12-29T18:50:19.554Z,13.17
2022-12-29T18:52:47.716Z,13.38
2022-12-29T18:55:17.988Z,13.32
2022-12-29T18:57:45.945Z,13.31
2022-12-29T19:00:16.684Z,13.17
2022-12-29T19:02:45.288Z,13.28
2022-12-29T19:05:23.206Z,13.45
2022-12-29T19:07:51.851Z,13.51
2022-12-29T19:10:21.138Z,13.40
2022-12-29T19:12:49.090Z,13.51
2022-12-29T19:15:23.491Z,13.34
2022-12-29T19:18:16.061Z,13.26
2022-12-29T19:20:42.936Z,13.22
2022-12-29T19:23:13.059Z,13.02
2022-12-29T19:25:41.705Z,13.08
2022-12-29T19:28:16.912Z,12.98
2022-12-29T19:30:49.558Z,12.81
2022-12-29T19:33:20.449Z,12.78
2022-12-29T19:35:50.094Z,12.49
2022-12-29T19:38:18.020Z,12.70
2022-12-29T19:40:48.076Z,12.68
2022-12-29T19:43:16.425Z,12.75
2022-12-29T19:45:45.561Z,12.76
2022-12-29T19:48:14.968Z,12.83
2022-12-29T19:50:43.635Z,12.75
2022-12-29T19:53:13.752Z,12.95
2022-12-29T19:55:43.391Z,12.98
2022-12-29T19:58:11.390Z,12.76
2022-12-29T20:00:40.957Z,13.08
2022-12-29T20:03:09.288Z,12.95
2022-12-29T20:05:37.452Z,12.91
2022-12-29T20:08:05.539Z,13.00
2022-12-29T20:10:34.855Z,12.81
2022-12-29T20:13:04.459Z,12.92
2022-12-29T20:15:32.918Z,12.94
2022-12-29T20:18:16.015Z,12.99
2022-12-29T20:20:44.172Z,13.02
2022-12-29T20:23:12.145Z,13.08
2022-12-29T20:25:45.144Z,12.96
2022-12-29T20:28:14.288Z,12.71
2022-12-29T20:30:42.206Z,12.84
2022-12-29T20:33:10.205Z,13.01
2022-12-29T20:35:43.438Z,12.84
2022-12-29T20:38:11.156Z,13.03
2022-12-29T20:40:45.878Z,12.92
2022-12-29T20:43:17.521Z,12.99
2022-12-29T20:45:46.040Z,13.11
2022-12-29T20:48:13.959Z,13.17
2022-12-29T20:50:42.013Z,13.00
2022-12-29T20:53:09.955Z,12.92
2022-12-29T20:55:40.908Z,12.90
2022-12-29T20:58:25.414Z,12.87
2022-12-29T21:00:55.603Z,13.07
2022-12-29T21:03:24.638Z,12.99
2022-12-29T21:05:53.639Z,12.91
2022-12-29T21:08:22.176Z,12.82
2022-12-29T21:10:50.942Z,13.03
2022-12-29T21:13:18.842Z,13.01
2022-12-29T21:15:47.101Z,12.91
2022-12-29T21:18:16.441Z,13.11
2022-12-29T21:20:44.295Z,12.78
2022-12-29T21:23:12.273Z,12.83
2022-12-29T21:25:45.157Z,13.01
2022-12-29T21:28:13.169Z,12.90
2022-12-29T21:30:41.791Z,12.91
2022-12-29T21:33:10.176Z,12.87
2022-12-29T21:35:40.032Z,12.87
2022-12-29T21:38:08.616Z,12.93
2022-12-29T21:40:38.450Z,12.86
2022-12-29T21:43:07.080Z,12.77
2022-12-29T21:45:34.577Z,12.87
2022-12-29T21:48:24.397Z,12.57
2022-12-29T21:51:12.072Z,12.65
2022-12-29T21:53:41.784Z,12.61
2022-12-29T21:56:12.746Z,12.70
2022-12-29T21:58:59.487Z,12.75
2022-12-29T22:01:46.395Z,12.45
2022-12-29T22:04:32.831Z,12.40
2022-12-29T22:07:19.714Z,12.21
2022-12-29T22:10:05.149Z,12.12
2022-12-29T22:12:51.453Z,11.96
2022-12-29T22:15:20.190Z,12.03
2022-12-29T22:17:49.697Z,11.69
2022-12-29T22:20:17.854Z,12.20
2022-12-29T22:22:47.336Z,11.90
2022-12-29T22:25:15.829Z,11.88
2022-12-29T22:27:44.178Z,12.06
2022-12-29T22:30:12.672Z,12.15
2022-12-29T22:32:41.149Z,12.07
2022-12-29T22:35:10.238Z,11.90
2022-12-29T22:37:40.274Z,11.96
2022-12-29T22:40:11.302Z,11.87
2022-12-29T22:42:39.993Z,12.06
2022-12-29T22:45:09.395Z,11.70
2022-12-29T22:47:37.668Z,11.99
2022-12-29T22:50:06.492Z,11.91
2022-12-29T22:52:34.436Z,11.71
2022-12-29T22:55:06.793Z,12.02
2022-12-29T22:57:37.041Z,12.08
2022-12-29T23:00:08.095Z,11.75
2022-12-29T23:02:36.632Z,11.90
2022-12-29T23:05:06.115Z,12.18
2022-12-29T23:07:35.434Z,12.06
2022-12-29T23:10:03.664Z,12.09
2022-12-29T23:12:32.690Z,12.07
2022-12-29T23:15:01.919Z,11.93
2022-12-29T23:17:30.008Z,12.22
2022-12-29T23:19:57.879Z,12.36
2022-12-29T23:22:25.766Z,12.08
2022-12-29T23:24:53.623Z,11.82
2022-12-29T23:27:21.936Z,12.09
2022-12-29T23:29:50.718Z,12.35
2022-12-29T23:32:20.231Z,12.18
2022-12-29T23:34:48.454Z,12.23
2022-12-29T23:37:16.552Z,12.38
2022-12-29T23:39:44.460Z,12.01
2022-12-29T23:42:12.413Z,12.35
2022-12-29T23:44:40.654Z,12.24
2022-12-29T23:47:08.853Z,12.43
2022-12-29T23:49:38.213Z,12.06
2022-12-29T23:52:06.183Z,12.28
2022-12-29T23:54:34.165Z,12.17
2022-12-29T23:57:02.422Z,12.23
2022-12-29T23:59:30.439Z,12.00
